メインページ
METAR-TAF:

METAR-TAF

空港 :

アタテュルク国際空港

イスタンブル-アタテュルク, トルコ

緯度: 40-58N, 経度: 028-49E, 海抜: 48m

現時点の気象観測

当レポートは28分前の05:20(UTC)に作成
東/北東の風 10kt
気温 10°C
湿度 71%
気圧 1029 hPa
視程10km以上
高度1600ftの雲は散在している
高度2100ftの千切れ雲あり

METAR: LTBA 210520Z 06010KT 9999 SCT016 BKN021 10/05 Q1029 NOSIG RMK RWY17L 06011KT 030V090 RWY05 04011KT RWY23 05013KT

時間: 08:48 (05:48 UTC)

予報

当レポートは1時間8分前の04:40(UTC)に作成
予報は21日の 06時(UTC)から 22日の 12時(UTC)まで有効
北/北東の風 15kt
視程10km以上
高度1200ftの雲は散在している
高度2200ftの千切れ雲あり
21日の 13時(UTC)から 21日の 17時(UTC)まで一時的に
北/北東の風 17kt、最大27ktの突風を伴う
21日の 16時(UTC)から 21日の 19時(UTC)まで徐々に
視程10km以上
1,500メートル以下は雲なし、積乱雲なし

TAF: LTBA 210440Z 2106/2212 03015KT 9999 SCT012 BKN022 TEMPO 2113/2117 03017G27KT BECMG 2116/2119 CAVOK

4,000以上の空港の気象観測と天気予報(METAR報とTAF報)

利用可能な観測所は地図上に黄色い丸と赤い丸で示す。

丸の上にカーソルを重ねると観測所名を参照できる。

次にクリックすると気象観測と天気予報を参照できる。

マップの切り替え:黒色「×」印の緑ボタンをクリックして拡大、「-」印の緑ボタンをクリックして縮小、緑色の三角印をクリックして隣りの地図に切り替え


METAR-TAF: